sensor_id;sensor_type;location;lat;lon;timestamp;temperature;humidity
19610;DHT22;9952;47.122;-1.638;2023-02-13T00:00:51;3.30;99.90
19610;DHT22;9952;47.122;-1.638;2023-02-13T00:05:32;3.30;99.90
19610;DHT22;9952;47.122;-1.638;2023-02-13T00:10:13;3.30;99.90
19610;DHT22;9952;47.122;-1.638;2023-02-13T00:14:54;3.30;99.90
19610;DHT22;9952;47.122;-1.638;2023-02-13T00:19:34;3.30;99.90
19610;DHT22;9952;47.122;-1.638;2023-02-13T00:24:15;3.20;99.90
19610;DHT22;9952;47.122;-1.638;2023-02-13T00:28:57;3.20;99.90
19610;DHT22;9952;47.122;-1.638;2023-02-13T00:33:37;3.20;99.90
19610;DHT22;9952;47.122;-1.638;2023-02-13T00:38:18;3.20;99.90
19610;DHT22;9952;47.122;-1.638;2023-02-13T00:42:59;3.20;99.90
19610;DHT22;9952;47.122;-1.638;2023-02-13T00:47:40;3.30;99.90
19610;DHT22;9952;47.122;-1.638;2023-02-13T00:52:21;3.30;99.90
19610;DHT22;9952;47.122;-1.638;2023-02-13T00:57:02;3.40;99.90
19610;DHT22;9952;47.122;-1.638;2023-02-13T01:01:42;3.30;99.90
19610;DHT22;9952;47.122;-1.638;2023-02-13T01:06:23;3.30;99.90
19610;DHT22;9952;47.122;-1.638;2023-02-13T01:11:04;3.30;99.90
19610;DHT22;9952;47.122;-1.638;2023-02-13T01:15:47;3.30;99.90
19610;DHT22;9952;47.122;-1.638;2023-02-13T01:20:28;3.30;99.90
19610;DHT22;9952;47.122;-1.638;2023-02-13T01:25:09;3.30;99.90
19610;DHT22;9952;47.122;-1.638;2023-02-13T01:29:50;3.30;99.90
19610;DHT22;9952;47.122;-1.638;2023-02-13T01:34:32;3.20;99.90
19610;DHT22;9952;47.122;-1.638;2023-02-13T01:39:13;3.20;99.90
19610;DHT22;9952;47.122;-1.638;2023-02-13T01:43:56;3.20;99.90
19610;DHT22;9952;47.122;-1.638;2023-02-13T01:48:37;3.20;99.90
19610;DHT22;9952;47.122;-1.638;2023-02-13T01:53:41;3.20;99.90
19610;DHT22;9952;47.122;-1.638;2023-02-13T01:58:27;3.10;99.90
19610;DHT22;9952;47.122;-1.638;2023-02-13T02:03:23;3.10;99.90
19610;DHT22;9952;47.122;-1.638;2023-02-13T02:08:09;3.00;99.90
19610;DHT22;9952;47.122;-1.638;2023-02-13T02:13:06;3.10;99.90
19610;DHT22;9952;47.122;-1.638;2023-02-13T02:17:49;3.10;99.90
19610;DHT22;9952;47.122;-1.638;2023-02-13T02:23:07;3.00;99.90
19610;DHT22;9952;47.122;-1.638;2023-02-13T02:28:09;3.00;99.90
19610;DHT22;9952;47.122;-1.638;2023-02-13T02:33:17;3.00;99.90
19610;DHT22;9952;47.122;-1.638;2023-02-13T02:48:30;2.80;99.90
19610;DHT22;9952;47.122;-1.638;2023-02-13T02:58:42;2.60;99.90
19610;DHT22;9952;47.122;-1.638;2023-02-13T03:03:42;2.60;99.90
19610;DHT22;9952;47.122;-1.638;2023-02-13T03:08:44;2.50;99.90
19610;DHT22;9952;47.122;-1.638;2023-02-13T03:13:47;2.50;99.90
19610;DHT22;9952;47.122;-1.638;2023-02-13T03:18:31;2.40;99.90
19610;DHT22;9952;47.122;-1.638;2023-02-13T03:23:52;2.30;99.90
19610;DHT22;9952;47.122;-1.638;2023-02-13T03:28:56;2.20;99.90
19610;DHT22;9952;47.122;-1.638;2023-02-13T03:39:11;1.90;99.90
19610;DHT22;9952;47.122;-1.638;2023-02-13T03:48:55;1.80;99.90
19610;DHT22;9952;47.122;-1.638;2023-02-13T03:53:59;1.70;99.90
19610;DHT22;9952;47.122;-1.638;2023-02-13T03:58:45;1.60;99.90
19610;DHT22;9952;47.122;-1.638;2023-02-13T04:08:32;1.40;99.90
19610;DHT22;9952;47.122;-1.638;2023-02-13T04:13:27;1.40;99.90
19610;DHT22;9952;47.122;-1.638;2023-02-13T04:18:16;1.40;99.90
19610;DHT22;9952;47.122;-1.638;2023-02-13T04:23:04;1.40;99.90
19610;DHT22;9952;47.122;-1.638;2023-02-13T04:27:45;1.30;99.90
19610;DHT22;9952;47.122;-1.638;2023-02-13T04:32:26;1.20;99.90
19610;DHT22;9952;47.122;-1.638;2023-02-13T04:37:07;1.10;99.90
19610;DHT22;9952;47.122;-1.638;2023-02-13T04:41:47;1.10;99.90
19610;DHT22;9952;47.122;-1.638;2023-02-13T04:46:28;1.00;99.90
19610;DHT22;9952;47.122;-1.638;2023-02-13T04:51:09;0.90;99.90
19610;DHT22;9952;47.122;-1.638;2023-02-13T04:55:50;0.90;99.90
19610;DHT22;9952;47.122;-1.638;2023-02-13T05:00:31;0.90;99.90
19610;DHT22;9952;47.122;-1.638;2023-02-13T05:05:12;0.80;99.90
19610;DHT22;9952;47.122;-1.638;2023-02-13T05:09:53;0.70;99.90
19610;DHT22;9952;47.122;-1.638;2023-02-13T05:14:34;0.60;99.90
19610;DHT22;9952;47.122;-1.638;2023-02-13T05:19:15;0.60;99.90
19610;DHT22;9952;47.122;-1.638;2023-02-13T05:23:56;0.60;99.90
19610;DHT22;9952;47.122;-1.638;2023-02-13T05:28:37;0.50;99.90
19610;DHT22;9952;47.122;-1.638;2023-02-13T05:33:36;0.40;99.90
19610;DHT22;9952;47.122;-1.638;2023-02-13T05:38:17;0.40;99.90
19610;DHT22;9952;47.122;-1.638;2023-02-13T05:42:57;0.40;99.90
19610;DHT22;9952;47.122;-1.638;2023-02-13T05:47:38;0.30;99.90
19610;DHT22;9952;47.122;-1.638;2023-02-13T05:52:19;0.30;99.90
19610;DHT22;9952;47.122;-1.638;2023-02-13T05:57:00;0.20;99.90
19610;DHT22;9952;47.122;-1.638;2023-02-13T06:01:40;0.20;99.90
19610;DHT22;9952;47.122;-1.638;2023-02-13T06:06:21;0.30;99.90
19610;DHT22;9952;47.122;-1.638;2023-02-13T06:11:03;0.20;99.90
19610;DHT22;9952;47.122;-1.638;2023-02-13T06:15:44;0.20;99.90
19610;DHT22;9952;47.122;-1.638;2023-02-13T06:20:25;0.10;99.90
19610;DHT22;9952;47.122;-1.638;2023-02-13T06:25:06;0.20;99.90
19610;DHT22;9952;47.122;-1.638;2023-02-13T06:29:47;0.30;99.90
19610;DHT22;9952;47.122;-1.638;2023-02-13T06:34:27;0.20;99.90
19610;DHT22;9952;47.122;-1.638;2023-02-13T06:39:09;0.20;99.90
19610;DHT22;9952;47.122;-1.638;2023-02-13T06:43:50;0.20;99.90
19610;DHT22;9952;47.122;-1.638;2023-02-13T06:48:31;0.20;99.90
19610;DHT22;9952;47.122;-1.638;2023-02-13T06:53:12;0.10;99.90
19610;DHT22;9952;47.122;-1.638;2023-02-13T06:57:53;0.00;99.90
19610;DHT22;9952;47.122;-1.638;2023-02-13T07:02:34;0.10;99.90
19610;DHT22;9952;47.122;-1.638;2023-02-13T07:07:14;0.10;99.90
19610;DHT22;9952;47.122;-1.638;2023-02-13T07:11:55;0.00;99.90
19610;DHT22;9952;47.122;-1.638;2023-02-13T07:16:36;0.00;99.90
19610;DHT22;9952;47.122;-1.638;2023-02-13T07:21:17;0.00;99.90
19610;DHT22;9952;47.122;-1.638;2023-02-13T07:25:58;0.10;99.90
19610;DHT22;9952;47.122;-1.638;2023-02-13T07:30:39;0.20;99.90
19610;DHT22;9952;47.122;-1.638;2023-02-13T07:35:20;0.20;99.90
19610;DHT22;9952;47.122;-1.638;2023-02-13T07:40:01;0.20;99.90
19610;DHT22;9952;47.122;-1.638;2023-02-13T07:44:43;0.30;99.90
19610;DHT22;9952;47.122;-1.638;2023-02-13T07:49:24;0.50;99.90
19610;DHT22;9952;47.122;-1.638;2023-02-13T07:54:05;0.80;99.90
19610;DHT22;9952;47.122;-1.638;2023-02-13T07:58:46;1.10;99.90
19610;DHT22;9952;47.122;-1.638;2023-02-13T08:03:26;1.30;99.90
19610;DHT22;9952;47.122;-1.638;2023-02-13T08:08:07;1.50;99.90
19610;DHT22;9952;47.122;-1.638;2023-02-13T08:12:48;1.70;99.90
19610;DHT22;9952;47.122;-1.638;2023-02-13T08:17:29;1.90;99.90
19610;DHT22;9952;47.122;-1.638;2023-02-13T08:22:10;2.30;99.90
19610;DHT22;9952;47.122;-1.638;2023-02-13T08:26:50;2.60;99.90
19610;DHT22;9952;47.122;-1.638;2023-02-13T08:31:31;3.00;99.90
19610;DHT22;9952;47.122;-1.638;2023-02-13T08:36:12;3.50;99.90
19610;DHT22;9952;47.122;-1.638;2023-02-13T08:40:55;4.00;99.90
19610;DHT22;9952;47.122;-1.638;2023-02-13T08:45:36;4.50;99.90
19610;DHT22;9952;47.122;-1.638;2023-02-13T08:50:17;4.90;99.90
19610;DHT22;9952;47.122;-1.638;2023-02-13T08:54:58;5.20;99.90
19610;DHT22;9952;47.122;-1.638;2023-02-13T08:59:38;5.60;99.90
19610;DHT22;9952;47.122;-1.638;2023-02-13T09:04:19;6.00;99.90
19610;DHT22;9952;47.122;-1.638;2023-02-13T09:09:00;6.40;99.90
19610;DHT22;9952;47.122;-1.638;2023-02-13T09:13:41;6.70;99.90
19610;DHT22;9952;47.122;-1.638;2023-02-13T09:18:21;7.20;99.90
19610;DHT22;9952;47.122;-1.638;2023-02-13T09:23:02;7.50;99.90
19610;DHT22;9952;47.122;-1.638;2023-02-13T09:27:43;7.90;99.90
19610;DHT22;9952;47.122;-1.638;2023-02-13T09:32:24;8.20;99.90
19610;DHT22;9952;47.122;-1.638;2023-02-13T09:37:05;8.70;99.90
19610;DHT22;9952;47.122;-1.638;2023-02-13T09:41:48;8.90;99.90
19610;DHT22;9952;47.122;-1.638;2023-02-13T09:46:33;9.10;99.90
19610;DHT22;9952;47.122;-1.638;2023-02-13T09:51:17;9.20;99.90
19610;DHT22;9952;47.122;-1.638;2023-02-13T09:56:10;9.30;99.90
19610;DHT22;9952;47.122;-1.638;2023-02-13T10:00:57;9.50;99.90
19610;DHT22;9952;47.122;-1.638;2023-02-13T10:15:42;10.30;99.90
19610;DHT22;9952;47.122;-1.638;2023-02-13T10:20:53;10.50;99.90
19610;DHT22;9952;47.122;-1.638;2023-02-13T10:26:11;10.80;99.90
19610;DHT22;9952;47.122;-1.638;2023-02-13T10:30:55;11.00;99.90
19610;DHT22;9952;47.122;-1.638;2023-02-13T10:35:37;11.20;99.90
19610;DHT22;9952;47.122;-1.638;2023-02-13T10:40:19;11.30;99.90
19610;DHT22;9952;47.122;-1.638;2023-02-13T11:05:06;12.00;99.90
19610;DHT22;9952;47.122;-1.638;2023-02-13T11:09:56;12.20;99.90
19610;DHT22;9952;47.122;-1.638;2023-02-13T11:14:56;12.40;99.90
19610;DHT22;9952;47.122;-1.638;2023-02-13T11:19:53;12.60;99.90
19610;DHT22;9952;47.122;-1.638;2023-02-13T11:24:34;12.80;99.90
19610;DHT22;9952;47.122;-1.638;2023-02-13T11:29:29;13.00;99.90
19610;DHT22;9952;47.122;-1.638;2023-02-13T11:34:27;13.10;99.90
19610;DHT22;9952;47.122;-1.638;2023-02-13T11:39:18;13.30;99.90
19610;DHT22;9952;47.122;-1.638;2023-02-13T11:44:00;13.40;99.90
19610;DHT22;9952;47.122;-1.638;2023-02-13T11:49:01;13.50;99.90
19610;DHT22;9952;47.122;-1.638;2023-02-13T11:53:42;13.70;99.90
19610;DHT22;9952;47.122;-1.638;2023-02-13T11:58:24;13.80;99.90
19610;DHT22;9952;47.122;-1.638;2023-02-13T12:08:08;14.00;99.90
19610;DHT22;9952;47.122;-1.638;2023-02-13T12:12:55;14.10;99.90
19610;DHT22;9952;47.122;-1.638;2023-02-13T12:17:37;14.30;99.90
19610;DHT22;9952;47.122;-1.638;2023-02-13T12:32:20;14.80;99.90
19610;DHT22;9952;47.122;-1.638;2023-02-13T12:47:04;14.90;99.90
19610;DHT22;9952;47.122;-1.638;2023-02-13T13:06:32;15.00;99.90
19610;DHT22;9952;47.122;-1.638;2023-02-13T13:30:48;15.60;99.90
19610;DHT22;9952;47.122;-1.638;2023-02-13T13:35:29;15.60;99.90
19610;DHT22;9952;47.122;-1.638;2023-02-13T13:50:23;15.80;99.90
19610;DHT22;9952;47.122;-1.638;2023-02-13T13:55:57;15.50;99.90
19610;DHT22;9952;47.122;-1.638;2023-02-13T14:05:30;16.00;99.90
19610;DHT22;9952;47.122;-1.638;2023-02-13T14:15:03;15.50;99.90
19610;DHT22;9952;47.122;-1.638;2023-02-13T14:19:50;15.50;99.90
19610;DHT22;9952;47.122;-1.638;2023-02-13T14:24:31;15.50;99.90
19610;DHT22;9952;47.122;-1.638;2023-02-13T14:29:22;15.50;99.90
19610;DHT22;9952;47.122;-1.638;2023-02-13T14:39:18;15.40;99.90
19610;DHT22;9952;47.122;-1.638;2023-02-13T14:44:00;15.40;99.90
19610;DHT22;9952;47.122;-1.638;2023-02-13T14:49:06;15.40;99.90
19610;DHT22;9952;47.122;-1.638;2023-02-13T14:53:50;15.60;99.90
19610;DHT22;9952;47.122;-1.638;2023-02-13T14:58:38;15.80;99.90
19610;DHT22;9952;47.122;-1.638;2023-02-13T15:03:43;16.00;99.90
19610;DHT22;9952;47.122;-1.638;2023-02-13T15:08:35;16.10;99.90
19610;DHT22;9952;47.122;-1.638;2023-02-13T15:13:22;15.70;99.90
19610;DHT22;9952;47.122;-1.638;2023-02-13T15:18:23;15.70;99.90
19610;DHT22;9952;47.122;-1.638;2023-02-13T15:23:05;15.50;99.90
19610;DHT22;9952;47.122;-1.638;2023-02-13T15:27:51;15.50;99.90
19610;DHT22;9952;47.122;-1.638;2023-02-13T15:32:35;15.30;99.90
19610;DHT22;9952;47.122;-1.638;2023-02-13T15:37:21;15.30;99.90
19610;DHT22;9952;47.122;-1.638;2023-02-13T15:42:02;15.20;99.90
19610;DHT22;9952;47.122;-1.638;2023-02-13T15:46:46;15.00;99.90
19610;DHT22;9952;47.122;-1.638;2023-02-13T15:51:29;15.00;99.90
19610;DHT22;9952;47.122;-1.638;2023-02-13T15:56:14;15.00;99.90
19610;DHT22;9952;47.122;-1.638;2023-02-13T16:00:55;15.00;99.90
19610;DHT22;9952;47.122;-1.638;2023-02-13T16:05:39;14.90;99.90
19610;DHT22;9952;47.122;-1.638;2023-02-13T16:10:26;14.80;99.90
19610;DHT22;9952;47.122;-1.638;2023-02-13T16:15:15;14.60;99.90
19610;DHT22;9952;47.122;-1.638;2023-02-13T16:24:57;14.50;99.90
19610;DHT22;9952;47.122;-1.638;2023-02-13T16:29:46;14.40;99.90
19610;DHT22;9952;47.122;-1.638;2023-02-13T16:34:29;14.30;99.90
19610;DHT22;9952;47.122;-1.638;2023-02-13T16:39:21;14.10;99.90
19610;DHT22;9952;47.122;-1.638;2023-02-13T16:44:21;14.00;99.90
19610;DHT22;9952;47.122;-1.638;2023-02-13T16:54:05;13.70;99.90
19610;DHT22;9952;47.122;-1.638;2023-02-13T16:58:46;13.60;99.90
19610;DHT22;9952;47.122;-1.638;2023-02-13T17:03:27;13.50;99.90
19610;DHT22;9952;47.122;-1.638;2023-02-13T17:08:08;13.40;99.90
19610;DHT22;9952;47.122;-1.638;2023-02-13T17:12:50;13.30;99.90
19610;DHT22;9952;47.122;-1.638;2023-02-13T17:17:31;13.20;99.90
19610;DHT22;9952;47.122;-1.638;2023-02-13T17:22:29;13.10;99.90
19610;DHT22;9952;47.122;-1.638;2023-02-13T17:27:10;12.90;99.90
19610;DHT22;9952;47.122;-1.638;2023-02-13T17:31:54;12.60;99.90
19610;DHT22;9952;47.122;-1.638;2023-02-13T17:36:35;12.30;99.90
19610;DHT22;9952;47.122;-1.638;2023-02-13T17:41:16;12.10;99.90
19610;DHT22;9952;47.122;-1.638;2023-02-13T17:45:57;11.90;99.90
19610;DHT22;9952;47.122;-1.638;2023-02-13T17:50:39;11.60;99.90
19610;DHT22;9952;47.122;-1.638;2023-02-13T17:55:22;11.40;99.90
19610;DHT22;9952;47.122;-1.638;2023-02-13T18:00:07;11.10;99.90
19610;DHT22;9952;47.122;-1.638;2023-02-13T18:04:49;10.80;99.90
19610;DHT22;9952;47.122;-1.638;2023-02-13T18:09:30;10.50;99.90
19610;DHT22;9952;47.122;-1.638;2023-02-13T18:14:11;10.40;99.90
19610;DHT22;9952;47.122;-1.638;2023-02-13T18:18:51;10.10;99.90
19610;DHT22;9952;47.122;-1.638;2023-02-13T18:23:32;9.90;99.90
19610;DHT22;9952;47.122;-1.638;2023-02-13T18:28:13;9.70;99.90
19610;DHT22;9952;47.122;-1.638;2023-02-13T18:32:55;9.50;99.90
19610;DHT22;9952;47.122;-1.638;2023-02-13T18:37:36;9.30;99.90
19610;DHT22;9952;47.122;-1.638;2023-02-13T18:42:18;9.20;99.90
19610;DHT22;9952;47.122;-1.638;2023-02-13T18:46:59;9.00;99.90
19610;DHT22;9952;47.122;-1.638;2023-02-13T18:51:40;8.80;99.90
19610;DHT22;9952;47.122;-1.638;2023-02-13T18:56:22;8.70;99.90
19610;DHT22;9952;47.122;-1.638;2023-02-13T19:01:10;8.60;99.90
19610;DHT22;9952;47.122;-1.638;2023-02-13T19:05:51;8.50;99.90
19610;DHT22;9952;47.122;-1.638;2023-02-13T19:10:34;8.30;99.90
19610;DHT22;9952;47.122;-1.638;2023-02-13T19:15:15;8.10;99.90
19610;DHT22;9952;47.122;-1.638;2023-02-13T19:19:56;8.00;99.90
19610;DHT22;9952;47.122;-1.638;2023-02-13T19:24:37;7.90;99.90
19610;DHT22;9952;47.122;-1.638;2023-02-13T19:29:17;7.70;99.90
19610;DHT22;9952;47.122;-1.638;2023-02-13T19:33:58;7.40;99.90
19610;DHT22;9952;47.122;-1.638;2023-02-13T19:38:41;7.30;99.90
19610;DHT22;9952;47.122;-1.638;2023-02-13T19:43:22;7.20;99.90
19610;DHT22;9952;47.122;-1.638;2023-02-13T19:48:03;7.10;99.90
19610;DHT22;9952;47.122;-1.638;2023-02-13T19:52:44;7.00;99.90
19610;DHT22;9952;47.122;-1.638;2023-02-13T19:57:25;6.80;99.90
19610;DHT22;9952;47.122;-1.638;2023-02-13T20:02:05;6.70;99.90
19610;DHT22;9952;47.122;-1.638;2023-02-13T20:06:46;6.70;99.90
19610;DHT22;9952;47.122;-1.638;2023-02-13T20:11:28;6.60;99.90
19610;DHT22;9952;47.122;-1.638;2023-02-13T20:16:11;6.50;99.90
19610;DHT22;9952;47.122;-1.638;2023-02-13T20:20:52;6.40;99.90
19610;DHT22;9952;47.122;-1.638;2023-02-13T20:25:33;6.20;99.90
19610;DHT22;9952;47.122;-1.638;2023-02-13T20:30:15;6.10;99.90
19610;DHT22;9952;47.122;-1.638;2023-02-13T20:34:56;5.90;99.90
19610;DHT22;9952;47.122;-1.638;2023-02-13T20:39:36;5.80;99.90
19610;DHT22;9952;47.122;-1.638;2023-02-13T20:44:17;5.70;99.90
19610;DHT22;9952;47.122;-1.638;2023-02-13T20:48:59;5.60;99.90
19610;DHT22;9952;47.122;-1.638;2023-02-13T20:53:41;5.50;99.90
19610;DHT22;9952;47.122;-1.638;2023-02-13T20:58:22;5.40;99.90
19610;DHT22;9952;47.122;-1.638;2023-02-13T21:03:03;5.30;99.90
19610;DHT22;9952;47.122;-1.638;2023-02-13T21:07:44;5.20;99.90
19610;DHT22;9952;47.122;-1.638;2023-02-13T21:12:24;5.10;99.90
19610;DHT22;9952;47.122;-1.638;2023-02-13T21:17:06;5.10;99.90
19610;DHT22;9952;47.122;-1.638;2023-02-13T21:21:47;5.00;99.90
19610;DHT22;9952;47.122;-1.638;2023-02-13T21:26:29;4.90;99.90
19610;DHT22;9952;47.122;-1.638;2023-02-13T21:31:12;4.90;99.90
19610;DHT22;9952;47.122;-1.638;2023-02-13T21:36:03;4.90;99.90
19610;DHT22;9952;47.122;-1.638;2023-02-13T21:40:44;4.90;99.90
19610;DHT22;9952;47.122;-1.638;2023-02-13T21:45:24;4.80;99.90
19610;DHT22;9952;47.122;-1.638;2023-02-13T21:50:05;4.70;99.90
19610;DHT22;9952;47.122;-1.638;2023-02-13T21:54:47;4.60;99.90
19610;DHT22;9952;47.122;-1.638;2023-02-13T21:59:27;4.40;99.90
19610;DHT22;9952;47.122;-1.638;2023-02-13T22:04:08;4.40;99.90
19610;DHT22;9952;47.122;-1.638;2023-02-13T22:08:55;4.40;99.90
19610;DHT22;9952;47.122;-1.638;2023-02-13T22:13:36;4.30;99.90
19610;DHT22;9952;47.122;-1.638;2023-02-13T22:18:19;4.20;99.90
19610;DHT22;9952;47.122;-1.638;2023-02-13T22:23:00;4.20;99.90
19610;DHT22;9952;47.122;-1.638;2023-02-13T22:27:47;4.20;99.90
19610;DHT22;9952;47.122;-1.638;2023-02-13T22:32:28;4.10;99.90
19610;DHT22;9952;47.122;-1.638;2023-02-13T22:37:27;4.10;99.90
19610;DHT22;9952;47.122;-1.638;2023-02-13T22:42:08;4.00;99.90
19610;DHT22;9952;47.122;-1.638;2023-02-13T22:46:49;3.90;99.90
19610;DHT22;9952;47.122;-1.638;2023-02-13T22:51:35;3.90;99.90
19610;DHT22;9952;47.122;-1.638;2023-02-13T22:56:31;3.80;99.90
19610;DHT22;9952;47.122;-1.638;2023-02-13T23:01:23;3.80;99.90
19610;DHT22;9952;47.122;-1.638;2023-02-13T23:06:05;3.70;99.90
19610;DHT22;9952;47.122;-1.638;2023-02-13T23:10:46;3.60;99.90
19610;DHT22;9952;47.122;-1.638;2023-02-13T23:15:47;3.60;99.90
19610;DHT22;9952;47.122;-1.638;2023-02-13T23:20:31;3.50;99.90
19610;DHT22;9952;47.122;-1.638;2023-02-13T23:25:12;3.50;99.90
19610;DHT22;9952;47.122;-1.638;2023-02-13T23:29:53;3.40;99.90
19610;DHT22;9952;47.122;-1.638;2023-02-13T23:34:34;3.40;99.90
19610;DHT22;9952;47.122;-1.638;2023-02-13T23:39:16;3.30;99.90
19610;DHT22;9952;47.122;-1.638;2023-02-13T23:43:56;3.20;99.90
19610;DHT22;9952;47.122;-1.638;2023-02-13T23:48:37;3.10;99.90
19610;DHT22;9952;47.122;-1.638;2023-02-13T23:53:18;3.00;99.90
19610;DHT22;9952;47.122;-1.638;2023-02-13T23:57:59;2.90;99.90
